sensor_id;sensor_type;location;lat;lon;timestamp;pressure;altitude;pressure_sealevel;temperature;humidity
49342;BME280;35210;41.606;-87.602;2023-05-12T00:00:44;99523.16;;;26.23;31.97
49342;BME280;35210;41.606;-87.602;2023-05-12T00:03:12;99527.81;;;26.09;31.60
49342;BME280;35210;41.606;-87.602;2023-05-12T00:05:41;99535.72;;;26.04;32.03
49342;BME280;35210;41.606;-87.602;2023-05-12T00:08:09;99533.53;;;25.94;32.39
49342;BME280;35210;41.606;-87.602;2023-05-12T00:10:37;99537.75;;;25.77;33.36
49342;BME280;35210;41.606;-87.602;2023-05-12T00:13:08;99532.75;;;25.74;32.82
49342;BME280;35210;41.606;-87.602;2023-05-12T00:15:36;99530.06;;;25.61;33.31
49342;BME280;35210;41.606;-87.602;2023-05-12T00:18:05;99526.31;;;25.62;33.58
49342;BME280;35210;41.606;-87.602;2023-05-12T00:20:33;99518.84;;;25.57;33.28
49342;BME280;35210;41.606;-87.602;2023-05-12T00:23:04;99529.69;;;25.44;33.79
49342;BME280;35210;41.606;-87.602;2023-05-12T00:25:33;99533.47;;;25.30;34.06
49342;BME280;35210;41.606;-87.602;2023-05-12T00:28:01;99530.59;;;25.18;34.47
49342;BME280;35210;41.606;-87.602;2023-05-12T00:30:31;99532.69;;;25.03;34.54
49342;BME280;35210;41.606;-87.602;2023-05-12T00:32:59;99538.06;;;24.89;35.30
49342;BME280;35210;41.606;-87.602;2023-05-12T00:35:28;99532.47;;;24.84;34.95
49342;BME280;35210;41.606;-87.602;2023-05-12T00:37:56;99532.66;;;24.76;34.89
49342;BME280;35210;41.606;-87.602;2023-05-12T00:40:24;99535.56;;;24.68;34.64
49342;BME280;35210;41.606;-87.602;2023-05-12T00:42:52;99535.13;;;24.58;34.65
49342;BME280;35210;41.606;-87.602;2023-05-12T00:45:20;99537.63;;;24.46;35.11
49342;BME280;35210;41.606;-87.602;2023-05-12T00:47:51;99539.06;;;24.36;35.34
49342;BME280;35210;41.606;-87.602;2023-05-12T00:50:20;99538.84;;;24.31;35.46
49342;BME280;35210;41.606;-87.602;2023-05-12T00:52:48;99541.69;;;24.22;36.05
49342;BME280;35210;41.606;-87.602;2023-05-12T00:55:17;99544.59;;;24.21;36.11
49342;BME280;35210;41.606;-87.602;2023-05-12T00:57:45;99544.19;;;24.24;36.22
49342;BME280;35210;41.606;-87.602;2023-05-12T01:00:14;99545.84;;;24.18;36.42
49342;BME280;35210;41.606;-87.602;2023-05-12T01:02:43;99546.22;;;24.09;37.09
49342;BME280;35210;41.606;-87.602;2023-05-12T01:05:15;99560.13;;;24.12;36.94
49342;BME280;35210;41.606;-87.602;2023-05-12T01:07:46;99555.75;;;24.05;37.35
49342;BME280;35210;41.606;-87.602;2023-05-12T01:10:18;99565.66;;;23.91;37.07
49342;BME280;35210;41.606;-87.602;2023-05-12T01:12:47;99556.50;;;23.85;37.30
49342;BME280;35210;41.606;-87.602;2023-05-12T01:15:16;99559.16;;;23.79;37.34
49342;BME280;35210;41.606;-87.602;2023-05-12T01:17:49;99550.63;;;23.69;37.70
49342;BME280;35210;41.606;-87.602;2023-05-12T01:20:22;99567.84;;;23.68;37.91
49342;BME280;35210;41.606;-87.602;2023-05-12T01:22:51;99564.91;;;23.63;38.93
49342;BME280;35210;41.606;-87.602;2023-05-12T01:25:22;99552.06;;;23.65;39.07
49342;BME280;35210;41.606;-87.602;2023-05-12T01:27:53;99555.41;;;23.67;38.43
49342;BME280;35210;41.606;-87.602;2023-05-12T01:30:23;99556.84;;;23.63;39.64
49342;BME280;35210;41.606;-87.602;2023-05-12T01:32:52;99551.44;;;23.63;40.22
49342;BME280;35210;41.606;-87.602;2023-05-12T01:35:20;99544.03;;;23.71;39.22
49342;BME280;35210;41.606;-87.602;2023-05-12T01:37:48;99563.53;;;23.80;39.47
49342;BME280;35210;41.606;-87.602;2023-05-12T01:40:17;99557.94;;;23.75;40.17
49342;BME280;35210;41.606;-87.602;2023-05-12T01:42:48;99564.34;;;23.74;40.30
49342;BME280;35210;41.606;-87.602;2023-05-12T01:45:19;99555.03;;;23.83;39.93
49342;BME280;35210;41.606;-87.602;2023-05-12T01:47:47;99553.16;;;23.77;40.50
49342;BME280;35210;41.606;-87.602;2023-05-12T01:50:16;99555.03;;;23.83;40.24
49342;BME280;35210;41.606;-87.602;2023-05-12T01:52:44;99543.66;;;23.87;39.94
49342;BME280;35210;41.606;-87.602;2023-05-12T01:55:12;99539.50;;;23.85;40.16
49342;BME280;35210;41.606;-87.602;2023-05-12T01:57:41;99535.72;;;23.79;39.69
49342;BME280;35210;41.606;-87.602;2023-05-12T02:00:10;99539.06;;;23.75;39.26
49342;BME280;35210;41.606;-87.602;2023-05-12T02:02:41;99542.31;;;23.64;40.13
49342;BME280;35210;41.606;-87.602;2023-05-12T02:05:10;99534.81;;;23.59;40.09
49342;BME280;35210;41.606;-87.602;2023-05-12T02:07:38;99544.72;;;23.52;40.13
49342;BME280;35210;41.606;-87.602;2023-05-12T02:10:07;99552.16;;;23.50;40.44
49342;BME280;35210;41.606;-87.602;2023-05-12T02:12:36;99542.22;;;23.50;41.11
49342;BME280;35210;41.606;-87.602;2023-05-12T02:15:05;99543.25;;;23.49;41.25
49342;BME280;35210;41.606;-87.602;2023-05-12T02:17:33;99550.69;;;23.47;41.00
49342;BME280;35210;41.606;-87.602;2023-05-12T02:20:06;99543.03;;;23.51;40.98
49342;BME280;35210;41.606;-87.602;2023-05-12T02:22:34;99545.19;;;23.55;40.61
49342;BME280;35210;41.606;-87.602;2023-05-12T02:25:03;99545.53;;;23.52;41.15
49342;BME280;35210;41.606;-87.602;2023-05-12T02:27:31;99549.47;;;23.50;41.24
49342;BME280;35210;41.606;-87.602;2023-05-12T02:29:59;99552.63;;;23.53;41.43
49342;BME280;35210;41.606;-87.602;2023-05-12T02:32:27;99548.72;;;23.56;41.56
49342;BME280;35210;41.606;-87.602;2023-05-12T02:34:56;99548.50;;;23.57;41.81
49342;BME280;35210;41.606;-87.602;2023-05-12T02:37:26;99553.91;;;23.57;42.06
49342;BME280;35210;41.606;-87.602;2023-05-12T02:39:54;99550.22;;;23.65;42.35
49342;BME280;35210;41.606;-87.602;2023-05-12T02:42:22;99553.53;;;23.67;42.08
49342;BME280;35210;41.606;-87.602;2023-05-12T02:44:53;99538.78;;;23.63;42.43
49342;BME280;35210;41.606;-87.602;2023-05-12T02:47:22;99544.97;;;23.57;42.12
49342;BME280;35210;41.606;-87.602;2023-05-12T02:49:50;99546.88;;;23.63;42.10
49342;BME280;35210;41.606;-87.602;2023-05-12T02:52:21;99546.00;;;23.56;42.15
49342;BME280;35210;41.606;-87.602;2023-05-12T02:54:50;99545.94;;;23.49;42.26
49342;BME280;35210;41.606;-87.602;2023-05-12T02:57:19;99548.41;;;23.44;42.52
49342;BME280;35210;41.606;-87.602;2023-05-12T02:59:47;99538.00;;;23.41;42.80
49342;BME280;35210;41.606;-87.602;2023-05-12T03:02:15;99538.41;;;23.38;42.86
49342;BME280;35210;41.606;-87.602;2023-05-12T03:04:43;99545.84;;;23.36;43.05
49342;BME280;35210;41.606;-87.602;2023-05-12T03:07:11;99552.91;;;23.37;42.98
49342;BME280;35210;41.606;-87.602;2023-05-12T03:09:39;99554.13;;;23.35;43.38
49342;BME280;35210;41.606;-87.602;2023-05-12T03:12:10;99552.03;;;23.30;43.54
49342;BME280;35210;41.606;-87.602;2023-05-12T03:14:39;99554.09;;;23.28;43.67
49342;BME280;35210;41.606;-87.602;2023-05-12T03:17:07;99547.03;;;23.27;43.71
49342;BME280;35210;41.606;-87.602;2023-05-12T03:19:35;99555.13;;;23.27;43.85
49342;BME280;35210;41.606;-87.602;2023-05-12T03:22:04;99554.47;;;23.25;44.11
49342;BME280;35210;41.606;-87.602;2023-05-12T03:24:33;99545.31;;;23.19;44.38
49342;BME280;35210;41.606;-87.602;2023-05-12T03:27:01;99540.53;;;23.15;44.83
49342;BME280;35210;41.606;-87.602;2023-05-12T03:29:31;99537.41;;;23.11;45.37
49342;BME280;35210;41.606;-87.602;2023-05-12T03:31:59;99534.91;;;23.10;45.39
49342;BME280;35210;41.606;-87.602;2023-05-12T03:34:28;99527.41;;;23.05;45.81
49342;BME280;35210;41.606;-87.602;2023-05-12T03:36:56;99538.38;;;23.04;45.58
49342;BME280;35210;41.606;-87.602;2023-05-12T03:39:24;99529.69;;;23.02;45.72
49342;BME280;35210;41.606;-87.602;2023-05-12T03:41:53;99535.91;;;23.02;45.39
49342;BME280;35210;41.606;-87.602;2023-05-12T03:44:21;99529.03;;;23.00;45.97
49342;BME280;35210;41.606;-87.602;2023-05-12T03:46:50;99531.09;;;22.98;46.10
49342;BME280;35210;41.606;-87.602;2023-05-12T03:49:19;99531.50;;;22.94;46.65
49342;BME280;35210;41.606;-87.602;2023-05-12T03:51:47;99526.50;;;22.91;47.35
49342;BME280;35210;41.606;-87.602;2023-05-12T03:54:15;99528.75;;;22.88;47.99
49342;BME280;35210;41.606;-87.602;2023-05-12T03:56:43;99529.34;;;22.83;48.71
49342;BME280;35210;41.606;-87.602;2023-05-12T03:59:11;99526.00;;;22.81;49.20
49342;BME280;35210;41.606;-87.602;2023-05-12T04:01:39;99524.34;;;22.80;49.76
49342;BME280;35210;41.606;-87.602;2023-05-12T04:04:09;99527.22;;;22.79;50.03
49342;BME280;35210;41.606;-87.602;2023-05-12T04:06:37;99528.41;;;22.76;49.83
49342;BME280;35210;41.606;-87.602;2023-05-12T04:09:05;99513.88;;;22.71;49.39
49342;BME280;35210;41.606;-87.602;2023-05-12T04:11:33;99511.38;;;22.69;49.03
49342;BME280;35210;41.606;-87.602;2023-05-12T04:14:02;99518.81;;;22.67;48.94
49342;BME280;35210;41.606;-87.602;2023-05-12T04:16:30;99514.44;;;22.66;48.71
49342;BME280;35210;41.606;-87.602;2023-05-12T04:18:58;99522.53;;;22.66;49.00
49342;BME280;35210;41.606;-87.602;2023-05-12T04:21:28;99519.19;;;22.64;49.04
49342;BME280;35210;41.606;-87.602;2023-05-12T04:23:56;99514.19;;;22.61;49.28
49342;BME280;35210;41.606;-87.602;2023-05-12T04:26:25;99510.88;;;22.59;49.49
49342;BME280;35210;41.606;-87.602;2023-05-12T04:28:53;99518.50;;;22.55;49.97
49342;BME280;35210;41.606;-87.602;2023-05-12T04:31:21;99510.41;;;22.55;50.20
49342;BME280;35210;41.606;-87.602;2023-05-12T04:33:50;99505.41;;;22.52;50.47
49342;BME280;35210;41.606;-87.602;2023-05-12T04:36:18;99509.97;;;22.52;50.78
49342;BME280;35210;41.606;-87.602;2023-05-12T04:38:47;99507.03;;;22.47;52.28
49342;BME280;35210;41.606;-87.602;2023-05-12T04:41:16;99495.16;;;22.41;53.17
49342;BME280;35210;41.606;-87.602;2023-05-12T04:43:44;99505.47;;;22.38;53.44
49342;BME280;35210;41.606;-87.602;2023-05-12T04:46:12;99500.28;;;22.36;53.90
49342;BME280;35210;41.606;-87.602;2023-05-12T04:48:40;99498.63;;;22.35;54.62
49342;BME280;35210;41.606;-87.602;2023-05-12T04:51:09;99502.34;;;22.34;54.86
49342;BME280;35210;41.606;-87.602;2023-05-12T04:53:37;99506.88;;;22.34;55.22
49342;BME280;35210;41.606;-87.602;2023-05-12T04:56:07;99496.97;;;22.34;54.34
49342;BME280;35210;41.606;-87.602;2023-05-12T04:58:35;99493.44;;;22.34;53.59
49342;BME280;35210;41.606;-87.602;2023-05-12T05:01:04;99493.00;;;22.30;53.18
49342;BME280;35210;41.606;-87.602;2023-05-12T05:03:33;99497.75;;;22.28;53.22
49342;BME280;35210;41.606;-87.602;2023-05-12T05:06:01;99490.91;;;22.25;54.39
49342;BME280;35210;41.606;-87.602;2023-05-12T05:08:29;99491.94;;;22.24;54.64
49342;BME280;35210;41.606;-87.602;2023-05-12T05:10:57;99491.94;;;22.24;55.45
49342;BME280;35210;41.606;-87.602;2023-05-12T05:13:27;99501.03;;;22.23;55.56
49342;BME280;35210;41.606;-87.602;2023-05-12T05:15:55;99504.75;;;22.22;54.97
49342;BME280;35210;41.606;-87.602;2023-05-12T05:18:24;99499.34;;;22.22;55.15
49342;BME280;35210;41.606;-87.602;2023-05-12T05:20:52;99498.34;;;22.23;54.93
49342;BME280;35210;41.606;-87.602;2023-05-12T05:23:23;99500.19;;;22.23;54.84
49342;BME280;35210;41.606;-87.602;2023-05-12T05:25:51;99499.34;;;22.22;54.53
49342;BME280;35210;41.606;-87.602;2023-05-12T05:28:19;99499.34;;;22.22;54.38
49342;BME280;35210;41.606;-87.602;2023-05-12T05:30:49;99506.41;;;22.23;54.24
49342;BME280;35210;41.606;-87.602;2023-05-12T05:33:17;99501.03;;;22.23;54.38
49342;BME280;35210;41.606;-87.602;2023-05-12T05:35:45;99499.34;;;22.22;54.36
49342;BME280;35210;41.606;-87.602;2023-05-12T05:38:14;99501.41;;;22.20;54.67
49342;BME280;35210;41.606;-87.602;2023-05-12T05:40:42;99502.63;;;22.18;54.64
49342;BME280;35210;41.606;-87.602;2023-05-12T05:43:10;99501.78;;;22.17;54.70
49342;BME280;35210;41.606;-87.602;2023-05-12T05:45:38;99499.09;;;22.17;54.65
49342;BME280;35210;41.606;-87.602;2023-05-12T05:48:08;99505.50;;;22.16;54.78
49342;BME280;35210;41.606;-87.602;2023-05-12T05:50:36;99505.50;;;22.16;54.83
49342;BME280;35210;41.606;-87.602;2023-05-12T05:53:04;99508.38;;;22.15;54.93
49342;BME280;35210;41.606;-87.602;2023-05-12T05:55:33;99509.41;;;22.14;55.09
49342;BME280;35210;41.606;-87.602;2023-05-12T05:58:01;99506.72;;;22.14;54.76
49342;BME280;35210;41.606;-87.602;2023-05-12T06:00:29;99505.88;;;22.13;55.14
49342;BME280;35210;41.606;-87.602;2023-05-12T06:02:57;99509.59;;;22.12;55.34
49342;BME280;35210;41.606;-87.602;2023-05-12T06:05:27;99513.13;;;22.13;55.34
49342;BME280;35210;41.606;-87.602;2023-05-12T06:07:56;99511.44;;;22.12;55.58
49342;BME280;35210;41.606;-87.602;2023-05-12T06:10:24;99511.63;;;22.10;55.80
49342;BME280;35210;41.606;-87.602;2023-05-12T06:12:52;99507.28;;;22.09;55.94
49342;BME280;35210;41.606;-87.602;2023-05-12T06:15:20;99518.03;;;22.09;56.30
49342;BME280;35210;41.606;-87.602;2023-05-12T06:17:49;99519.72;;;22.10;56.15
49342;BME280;35210;41.606;-87.602;2023-05-12T06:20:17;99508.31;;;22.08;56.55
49342;BME280;35210;41.606;-87.602;2023-05-12T06:22:47;99508.31;;;22.08;56.42
49342;BME280;35210;41.606;-87.602;2023-05-12T06:25:15;99512.84;;;22.08;56.48
49342;BME280;35210;41.606;-87.602;2023-05-12T06:27:43;99508.69;;;22.05;56.64
49342;BME280;35210;41.606;-87.602;2023-05-12T06:30:12;99508.69;;;22.05;56.50
49342;BME280;35210;41.606;-87.602;2023-05-12T06:32:40;99505.34;;;22.03;56.83
49342;BME280;35210;41.606;-87.602;2023-05-12T06:35:09;99506.19;;;22.04;56.93
49342;BME280;35210;41.606;-87.602;2023-05-12T06:37:37;99499.78;;;22.05;56.97
49342;BME280;35210;41.606;-87.602;2023-05-12T06:40:08;99493.56;;;22.04;57.06
49342;BME280;35210;41.606;-87.602;2023-05-12T06:42:36;99498.31;;;22.02;56.93
49342;BME280;35210;41.606;-87.602;2023-05-12T06:45:05;99497.47;;;22.02;57.08
49342;BME280;35210;41.606;-87.602;2023-05-12T06:47:35;99492.25;;;22.00;56.85
49342;BME280;35210;41.606;-87.602;2023-05-12T06:50:03;99489.56;;;22.00;56.66
49342;BME280;35210;41.606;-87.602;2023-05-12T06:52:31;99476.31;;;21.98;56.75
49342;BME280;35210;41.606;-87.602;2023-05-12T06:54:59;99490.78;;;21.97;56.64
49342;BME280;35210;41.606;-87.602;2023-05-12T06:57:30;99484.56;;;21.97;56.95
49342;BME280;35210;41.606;-87.602;2023-05-12T06:59:59;99486.44;;;21.96;57.14
49342;BME280;35210;41.606;-87.602;2023-05-12T07:02:28;99488.28;;;21.96;56.99
49342;BME280;35210;41.606;-87.602;2023-05-12T07:04:57;99481.25;;;21.95;57.24
49342;BME280;35210;41.606;-87.602;2023-05-12T07:07:25;99478.75;;;21.93;57.00
49342;BME280;35210;41.606;-87.602;2023-05-12T07:09:53;99485.13;;;21.92;57.31
49342;BME280;35210;41.606;-87.602;2023-05-12T07:12:22;99482.63;;;21.91;57.36
49342;BME280;35210;41.606;-87.602;2023-05-12T07:14:51;99487.00;;;21.92;57.51
49342;BME280;35210;41.606;-87.602;2023-05-12T07:17:20;99489.03;;;21.90;57.74
49342;BME280;35210;41.606;-87.602;2023-05-12T07:19:48;99486.34;;;21.90;58.12
49342;BME280;35210;41.606;-87.602;2023-05-12T07:22:16;99475.78;;;21.88;58.33
49342;BME280;35210;41.606;-87.602;2023-05-12T07:24:45;99484.88;;;21.87;58.56
49342;BME280;35210;41.606;-87.602;2023-05-12T07:27:13;99478.66;;;21.87;58.49
49342;BME280;35210;41.606;-87.602;2023-05-12T07:29:41;99474.13;;;21.87;58.48
49342;BME280;35210;41.606;-87.602;2023-05-12T07:32:11;99467.91;;;21.87;58.35
49342;BME280;35210;41.606;-87.602;2023-05-12T07:34:39;99478.66;;;21.87;58.51
49342;BME280;35210;41.606;-87.602;2023-05-12T07:37:07;99468.94;;;21.86;58.63
49342;BME280;35210;41.606;-87.602;2023-05-12T07:39:35;99467.47;;;21.83;58.66
49342;BME280;35210;41.606;-87.602;2023-05-12T07:42:04;99470.97;;;21.84;58.44
49342;BME280;35210;41.606;-87.602;2023-05-12T07:44:33;99471.16;;;21.82;58.31
49342;BME280;35210;41.606;-87.602;2023-05-12T07:47:01;99467.66;;;21.82;58.35
49342;BME280;35210;41.606;-87.602;2023-05-12T07:49:31;99476.53;;;21.82;58.11
49342;BME280;35210;41.606;-87.602;2023-05-12T07:52:00;99471.53;;;21.79;58.05
49342;BME280;35210;41.606;-87.602;2023-05-12T07:54:28;99473.22;;;21.80;58.14
49342;BME280;35210;41.606;-87.602;2023-05-12T07:56:56;99471.91;;;21.76;58.09
49342;BME280;35210;41.606;-87.602;2023-05-12T07:59:25;99463.03;;;21.76;58.13
49342;BME280;35210;41.606;-87.602;2023-05-12T08:01:53;99466.53;;;21.76;58.34
49342;BME280;35210;41.606;-87.602;2023-05-12T08:04:22;99476.47;;;21.76;58.30
49342;BME280;35210;41.606;-87.602;2023-05-12T08:06:51;99471.09;;;21.76;58.27
49342;BME280;35210;41.606;-87.602;2023-05-12T08:09:20;99465.91;;;21.74;58.25
49342;BME280;35210;41.606;-87.602;2023-05-12T08:11:48;99474.16;;;21.73;58.28
49342;BME280;35210;41.606;-87.602;2023-05-12T08:14:16;99467.75;;;21.74;58.39
49342;BME280;35210;41.606;-87.602;2023-05-12T08:16:44;99473.13;;;21.74;58.42
49342;BME280;35210;41.606;-87.602;2023-05-12T08:19:13;99475.63;;;21.75;58.70
49342;BME280;35210;41.606;-87.602;2023-05-12T08:21:41;99471.47;;;21.73;59.00
49342;BME280;35210;41.606;-87.602;2023-05-12T08:24:11;99475.19;;;21.72;59.14
49342;BME280;35210;41.606;-87.602;2023-05-12T08:26:39;99478.06;;;21.70;58.53
49342;BME280;35210;41.606;-87.602;2023-05-12T08:29:07;99481.75;;;21.69;58.45
49342;BME280;35210;41.606;-87.602;2023-05-12T08:31:37;99479.91;;;21.70;58.68
49342;BME280;35210;41.606;-87.602;2023-05-12T08:34:05;99477.22;;;21.70;58.80
49342;BME280;35210;41.606;-87.602;2023-05-12T08:36:34;99482.59;;;21.70;59.21
49342;BME280;35210;41.606;-87.602;2023-05-12T08:39:02;99484.25;;;21.71;59.03
49342;BME280;35210;41.606;-87.602;2023-05-12T08:41:41;99483.63;;;21.69;58.85
49342;BME280;35210;41.606;-87.602;2023-05-12T08:44:10;99484.63;;;21.68;58.55
49342;BME280;35210;41.606;-87.602;2023-05-12T08:46:39;99486.50;;;21.67;58.39
49342;BME280;35210;41.606;-87.602;2023-05-12T08:49:09;99488.34;;;21.67;58.37
49342;BME280;35210;41.606;-87.602;2023-05-12T08:51:43;99489.75;;;21.62;57.63
49342;BME280;35210;41.606;-87.602;2023-05-12T08:54:12;99498.63;;;21.63;57.18
49342;BME280;35210;41.606;-87.602;2023-05-12T08:56:42;99477.97;;;21.63;57.24
49342;BME280;35210;41.606;-87.602;2023-05-12T08:59:12;99482.97;;;21.67;57.52
49342;BME280;35210;41.606;-87.602;2023-05-12T09:01:41;99487.31;;;21.68;56.51
49342;BME280;35210;41.606;-87.602;2023-05-12T09:04:12;99477.97;;;21.63;56.85
49342;BME280;35210;41.606;-87.602;2023-05-12T09:06:41;99475.47;;;21.62;56.94
49342;BME280;35210;41.606;-87.602;2023-05-12T09:09:11;99476.03;;;21.57;57.15
49342;BME280;35210;41.606;-87.602;2023-05-12T09:11:42;99475.19;;;21.57;57.47
49342;BME280;35210;41.606;-87.602;2023-05-12T09:14:17;99474.38;;;21.56;57.54
49342;BME280;35210;41.606;-87.602;2023-05-12T09:16:47;99486.13;;;21.55;58.00
49342;BME280;35210;41.606;-87.602;2023-05-12T09:19:19;99490.66;;;21.55;58.24
49342;BME280;35210;41.606;-87.602;2023-05-12T09:21:48;99499.56;;;21.55;58.21
49342;BME280;35210;41.606;-87.602;2023-05-12T09:24:16;99497.72;;;21.56;57.46
49342;BME280;35210;41.606;-87.602;2023-05-12T09:26:48;99500.22;;;21.57;56.62
49342;BME280;35210;41.606;-87.602;2023-05-12T09:29:17;99503.56;;;21.59;54.29
49342;BME280;35210;41.606;-87.602;2023-05-12T09:31:49;99489.56;;;21.64;53.81
49342;BME280;35210;41.606;-87.602;2023-05-12T09:34:18;99497.81;;;21.62;53.82
49342;BME280;35210;41.606;-87.602;2023-05-12T09:36:55;99498.19;;;21.59;53.89
49342;BME280;35210;41.606;-87.602;2023-05-12T09:39:23;99498.19;;;21.59;54.10
49342;BME280;35210;41.606;-87.602;2023-05-12T09:41:53;99505.22;;;21.60;54.34
49342;BME280;35210;41.606;-87.602;2023-05-12T09:44:23;99503.56;;;21.59;54.63
49342;BME280;35210;41.606;-87.602;2023-05-12T09:46:52;99499.19;;;21.58;55.15
49342;BME280;35210;41.606;-87.602;2023-05-12T09:49:21;99497.53;;;21.57;55.17
49342;BME280;35210;41.606;-87.602;2023-05-12T09:51:51;99505.59;;;21.57;55.06
49342;BME280;35210;41.606;-87.602;2023-05-12T09:54:26;99508.28;;;21.57;54.65
49342;BME280;35210;41.606;-87.602;2023-05-12T09:56:58;99508.47;;;21.56;54.28
49342;BME280;35210;41.606;-87.602;2023-05-12T09:59:30;99511.16;;;21.56;54.33
49342;BME280;35210;41.606;-87.602;2023-05-12T10:01:59;99519.22;;;21.56;54.47
49342;BME280;35210;41.606;-87.602;2023-05-12T10:04:27;99516.34;;;21.57;54.67
49342;BME280;35210;41.606;-87.602;2023-05-12T10:06:57;99520.22;;;21.55;54.87
49342;BME280;35210;41.606;-87.602;2023-05-12T10:09:29;99514.03;;;21.54;55.32
49342;BME280;35210;41.606;-87.602;2023-05-12T10:12:02;99515.06;;;21.53;55.82
49342;BME280;35210;41.606;-87.602;2023-05-12T10:14:31;99515.50;;;21.57;56.15
49342;BME280;35210;41.606;-87.602;2023-05-12T10:17:01;99516.72;;;21.54;55.64
49342;BME280;35210;41.606;-87.602;2023-05-12T10:19:30;99515.06;;;21.53;55.41
49342;BME280;35210;41.606;-87.602;2023-05-12T10:21:59;99516.09;;;21.52;55.04
49342;BME280;35210;41.606;-87.602;2023-05-12T10:24:28;99521.66;;;21.51;54.77
49342;BME280;35210;41.606;-87.602;2023-05-12T10:26:56;99523.50;;;21.50;54.64
49342;BME280;35210;41.606;-87.602;2023-05-12T10:29:27;99525.53;;;21.48;54.99
49342;BME280;35210;41.606;-87.602;2023-05-12T10:31:58;99525.53;;;21.48;54.66
49342;BME280;35210;41.606;-87.602;2023-05-12T10:34:29;99528.41;;;21.47;54.92
49342;BME280;35210;41.606;-87.602;2023-05-12T10:37:03;99530.28;;;21.46;54.98
49342;BME280;35210;41.606;-87.602;2023-05-12T10:39:33;99533.97;;;21.45;55.25
49342;BME280;35210;41.606;-87.602;2023-05-12T10:42:04;99538.50;;;21.45;55.29
49342;BME280;35210;41.606;-87.602;2023-05-12T10:44:35;99543.69;;;21.46;55.36
49342;BME280;35210;41.606;-87.602;2023-05-12T10:47:12;99542.69;;;21.47;55.37
49342;BME280;35210;41.606;-87.602;2023-05-12T10:49:40;99534.81;;;21.46;55.57
49342;BME280;35210;41.606;-87.602;2023-05-12T10:52:10;99533.97;;;21.45;55.51
49342;BME280;35210;41.606;-87.602;2023-05-12T10:54:40;99534.16;;;21.44;55.59
49342;BME280;35210;41.606;-87.602;2023-05-12T10:57:12;99536.66;;;21.45;55.58
49342;BME280;35210;41.606;-87.602;2023-05-12T10:59:49;99536.00;;;21.43;55.88
49342;BME280;35210;41.606;-87.602;2023-05-12T11:02:18;99532.69;;;21.41;56.03
49342;BME280;35210;41.606;-87.602;2023-05-12T11:04:52;99540.09;;;21.39;55.85
49342;BME280;35210;41.606;-87.602;2023-05-12T11:07:24;99549.81;;;21.40;55.85
49342;BME280;35210;41.606;-87.602;2023-05-12T11:09:54;99539.25;;;21.39;56.07
49342;BME280;35210;41.606;-87.602;2023-05-12T11:12:23;99542.78;;;21.39;56.13
49342;BME280;35210;41.606;-87.602;2023-05-12T11:14:54;99545.47;;;21.39;56.43
49342;BME280;35210;41.606;-87.602;2023-05-12T11:17:22;99547.13;;;21.40;56.70
49342;BME280;35210;41.606;-87.602;2023-05-12T11:19:51;99545.47;;;21.39;56.89
49342;BME280;35210;41.606;-87.602;2023-05-12T11:22:21;99556.19;;;21.39;56.84
49342;BME280;35210;41.606;-87.602;2023-05-12T11:24:50;99556.19;;;21.39;56.92
49342;BME280;35210;41.606;-87.602;2023-05-12T11:27:19;99553.50;;;21.39;57.06
49342;BME280;35210;41.606;-87.602;2023-05-12T11:29:56;99555.19;;;21.40;57.04
49342;BME280;35210;41.606;-87.602;2023-05-12T11:32:25;99560.56;;;21.40;57.23
49342;BME280;35210;41.606;-87.602;2023-05-12T11:34:53;99559.72;;;21.40;57.76
49342;BME280;35210;41.606;-87.602;2023-05-12T11:37:21;99565.94;;;21.40;57.98
49342;BME280;35210;41.606;-87.602;2023-05-12T11:39:49;99565.94;;;21.40;58.37
49342;BME280;35210;41.606;-87.602;2023-05-12T11:42:18;99570.28;;;21.41;58.71
49342;BME280;35210;41.606;-87.602;2023-05-12T11:44:47;99565.75;;;21.42;59.13
49342;BME280;35210;41.606;-87.602;2023-05-12T11:47:19;99562.88;;;21.43;59.23
49342;BME280;35210;41.606;-87.602;2023-05-12T11:49:49;99566.41;;;21.44;59.75
49342;BME280;35210;41.606;-87.602;2023-05-12T11:52:18;99558.34;;;21.44;60.22
49342;BME280;35210;41.606;-87.602;2023-05-12T11:54:49;99566.22;;;21.45;60.37
49342;BME280;35210;41.606;-87.602;2023-05-12T11:57:25;99561.84;;;21.44;60.48
49342;BME280;35210;41.606;-87.602;2023-05-12T11:59:57;99566.22;;;21.45;60.87
49342;BME280;35210;41.606;-87.602;2023-05-12T12:02:27;99554.63;;;21.45;61.31
49342;BME280;35210;41.606;-87.602;2023-05-12T12:04:56;99557.97;;;21.47;61.81
49342;BME280;35210;41.606;-87.602;2023-05-12T12:07:31;99565.84;;;21.48;62.13
49342;BME280;35210;41.606;-87.602;2023-05-12T12:10:10;99556.75;;;21.49;62.47
49342;BME280;35210;41.606;-87.602;2023-05-12T12:12:39;99562.13;;;21.49;62.80
49342;BME280;35210;41.606;-87.602;2023-05-12T12:15:08;99567.31;;;21.51;63.02
49342;BME280;35210;41.606;-87.602;2023-05-12T12:17:38;99577.88;;;21.52;63.21
49342;BME280;35210;41.606;-87.602;2023-05-12T12:20:08;99578.72;;;21.53;63.39
49342;BME280;35210;41.606;-87.602;2023-05-12T12:22:36;99580.16;;;21.55;63.73
49342;BME280;35210;41.606;-87.602;2023-05-12T12:25:05;99576.47;;;21.56;64.18
49342;BME280;35210;41.606;-87.602;2023-05-12T12:27:34;99581.47;;;21.59;64.48
49342;BME280;35210;41.606;-87.602;2023-05-12T12:30:02;99575.09;;;21.60;65.32
49342;BME280;35210;41.606;-87.602;2023-05-12T12:32:30;99575.91;;;21.61;65.54
49342;BME280;35210;41.606;-87.602;2023-05-12T12:35:00;99578.88;;;21.66;65.80
49342;BME280;35210;41.606;-87.602;2023-05-12T12:37:29;99580.72;;;21.65;66.29
49342;BME280;35210;41.606;-87.602;2023-05-12T12:39:57;99579.91;;;21.65;67.20
49342;BME280;35210;41.606;-87.602;2023-05-12T12:42:33;99589.44;;;21.68;67.82
49342;BME280;35210;41.606;-87.602;2023-05-12T12:45:02;99597.97;;;21.71;69.02
49342;BME280;35210;41.606;-87.602;2023-05-12T12:47:30;99602.13;;;21.74;69.30
49342;BME280;35210;41.606;-87.602;2023-05-12T12:50:00;99601.78;;;21.77;70.25